createdAt,value
2023-03-04T00:00:33.472Z,2.54
2023-03-04T00:03:00.448Z,2.48
2023-03-04T00:05:27.334Z,2.44
2023-03-04T00:07:54.199Z,2.41
2023-03-04T00:20:17.855Z,2.34
2023-03-04T00:22:44.813Z,2.34
2023-03-04T00:25:14.610Z,2.35
2023-03-04T00:27:42.559Z,2.33
2023-03-04T00:30:10.182Z,2.32
2023-03-04T00:32:37.512Z,2.31
2023-03-04T00:35:06.606Z,2.28
2023-03-04T00:37:38.107Z,2.25
2023-03-04T00:56:30.610Z,2.17
2023-03-04T00:58:57.651Z,2.20
2023-03-04T01:01:25.767Z,2.21
2023-03-04T01:03:54.243Z,2.22
2023-03-04T01:06:22.900Z,2.23
2023-03-04T01:08:49.921Z,2.22
2023-03-04T01:11:17.232Z,2.20
2023-03-04T01:13:46.908Z,2.18
2023-03-04T01:16:14.067Z,2.15
2023-03-04T01:18:41.305Z,2.12
2023-03-04T01:21:09.291Z,2.10
2023-03-04T01:23:36.210Z,2.07
2023-03-04T01:26:03.514Z,2.05
2023-03-04T01:28:35.157Z,2.03
2023-03-04T01:31:03.841Z,2.02
2023-03-04T01:33:31.211Z,2.01
2023-03-04T01:35:58.288Z,2.00
2023-03-04T01:38:26.363Z,1.99
2023-03-04T01:51:21.597Z,1.97
2023-03-04T01:53:52.935Z,1.97
2023-03-04T01:56:39.575Z,1.98
2023-03-04T01:59:29.921Z,1.98
2023-03-04T02:01:59.890Z,1.96
2023-03-04T02:04:32.350Z,1.92
2023-03-04T02:07:01.710Z,1.90
2023-03-04T02:09:30.452Z,1.89
2023-03-04T02:11:57.774Z,1.88
2023-03-04T02:14:25.537Z,1.86
2023-03-04T02:16:56.017Z,1.85
2023-03-04T02:19:23.527Z,1.85
2023-03-04T02:21:51.294Z,1.83
2023-03-04T02:24:37.664Z,1.83
2023-03-04T02:43:14.252Z,1.92
2023-03-04T02:45:49.471Z,1.91
2023-03-04T02:48:19.626Z,1.90
2023-03-04T02:50:52.443Z,1.91
2023-03-04T02:53:20.957Z,1.90
2023-03-04T02:55:48.648Z,1.90
2023-03-04T02:58:18.090Z,1.89
2023-03-04T03:00:47.446Z,1.87
2023-03-04T03:03:19.912Z,1.87
2023-03-04T03:05:47.126Z,1.86
2023-03-04T03:08:14.443Z,1.86
2023-03-04T03:10:42.025Z,1.85
2023-03-04T03:13:09.119Z,1.85
2023-03-04T03:15:41.688Z,1.83
2023-03-04T03:18:10.458Z,1.83
2023-03-04T03:20:37.745Z,1.81
2023-03-04T03:23:06.887Z,1.80
2023-03-04T03:41:21.006Z,1.80
2023-03-04T03:43:48.311Z,1.79
2023-03-04T03:46:15.234Z,1.77
2023-03-04T03:48:43.544Z,1.76
2023-03-04T03:51:10.479Z,1.74
2023-03-04T03:53:37.766Z,1.72
2023-03-04T03:56:05.103Z,1.72
2023-03-04T03:58:32.158Z,1.71
2023-03-04T04:00:59.070Z,1.71
2023-03-04T04:03:27.496Z,1.70
2023-03-04T04:05:54.396Z,1.69
2023-03-04T04:08:24.646Z,1.68
2023-03-04T04:10:52.704Z,1.66
2023-03-04T04:13:19.928Z,1.65
2023-03-04T04:15:53.662Z,1.64
2023-03-04T04:18:24.728Z,1.63
2023-03-04T04:20:52.248Z,1.62
2023-03-04T04:23:20.252Z,1.60
2023-03-04T04:25:47.194Z,1.56
2023-03-04T04:28:14.424Z,1.52
2023-03-04T04:30:42.125Z,1.47
2023-03-04T04:33:12.052Z,1.42
2023-03-04T04:35:39.530Z,1.38
2023-03-04T04:38:07.693Z,1.34
2023-03-04T04:40:34.907Z,1.31
2023-03-04T04:43:02.749Z,1.27
2023-03-04T04:45:30.131Z,1.23
2023-03-04T04:47:57.142Z,1.21
2023-03-04T04:50:25.438Z,1.20
2023-03-04T04:52:52.468Z,1.17
2023-03-04T05:09:36.449Z,1.28
2023-03-04T05:12:03.662Z,1.32
2023-03-04T05:14:35.064Z,1.36
2023-03-04T05:17:02.381Z,1.37
2023-03-04T05:19:29.429Z,1.40
2023-03-04T05:21:58.990Z,1.43
2023-03-04T05:24:25.882Z,1.46
2023-03-04T05:32:10.966Z,1.60
2023-03-04T05:34:37.851Z,1.64
2023-03-04T05:37:04.849Z,1.70
2023-03-04T05:39:33.297Z,1.76
2023-03-04T05:43:04.162Z,1.81
2023-03-04T05:45:33.151Z,1.92
2023-03-04T05:48:00.335Z,2.01
2023-03-04T05:50:27.270Z,2.11
2023-03-04T05:52:55.174Z,2.19
2023-03-04T05:56:00.393Z,2.28
2023-03-04T05:58:27.357Z,2.37
2023-03-04T06:00:59.822Z,2.40
2023-03-04T06:03:27.135Z,2.46
2023-03-04T06:05:55.786Z,2.54
2023-03-04T06:08:23.515Z,2.59
2023-03-04T06:10:54.154Z,2.65
2023-03-04T06:13:25.486Z,2.72
2023-03-04T06:15:57.901Z,2.78
2023-03-04T06:18:26.465Z,2.87
2023-03-04T06:21:00.889Z,2.97
2023-03-04T06:23:30.008Z,3.05
2023-03-04T06:25:58.905Z,3.17
2023-03-04T06:28:26.258Z,3.30
2023-03-04T06:30:55.238Z,3.42
2023-03-04T06:33:25.262Z,3.54
2023-03-04T06:35:56.841Z,3.69
2023-03-04T06:38:25.149Z,3.88
2023-03-04T06:40:56.746Z,4.03
2023-03-04T06:43:24.144Z,4.15
2023-03-04T06:45:51.213Z,4.21
2023-03-04T06:48:18.391Z,4.29
2023-03-04T06:50:45.342Z,4.37
2023-03-04T06:53:12.262Z,4.45
2023-03-04T07:04:47.326Z,5.00
2023-03-04T07:07:14.259Z,5.14
2023-03-04T07:10:21.559Z,5.24
2023-03-04T07:12:48.492Z,5.35
2023-03-04T07:15:15.757Z,5.45
2023-03-04T07:17:43.797Z,5.58
2023-03-04T07:20:11.307Z,5.69
2023-03-04T07:22:38.341Z,5.80
2023-03-04T07:33:44.769Z,6.15
2023-03-04T07:36:14.282Z,6.16
2023-03-04T07:38:45.939Z,6.21
2023-03-04T07:41:13.886Z,6.25
2023-03-04T07:43:40.780Z,6.32
2023-03-04T07:46:08.359Z,6.45
2023-03-04T08:08:55.873Z,6.68
2023-03-04T08:37:44.785Z,7.42
2023-03-04T08:37:46.302Z,7.40
2023-03-04T08:40:38.930Z,7.44
2023-03-04T08:52:17.879Z,7.57
2023-03-04T08:52:27.882Z,7.62
2023-03-04T08:58:47.325Z,7.63
2023-03-04T09:10:02.628Z,7.83
2023-03-04T09:18:52.183Z,7.78
2023-03-04T09:59:23.116Z,7.87
2023-03-04T10:06:09.156Z,8.03
2023-03-04T10:08:48.908Z,8.09
2023-03-04T10:11:33.900Z,8.06
2023-03-04T10:14:20.734Z,8.07
2023-03-04T10:16:57.423Z,7.91
2023-03-04T10:19:43.630Z,7.70
2023-03-04T10:22:19.145Z,7.62
2023-03-04T10:24:47.580Z,7.69
2023-03-04T10:27:19.070Z,7.81
2023-03-04T10:29:48.962Z,7.94
2023-03-04T10:32:20.968Z,8.04
2023-03-04T10:34:48.000Z,8.10
2023-03-04T10:37:15.050Z,8.18
2023-03-04T10:39:46.068Z,8.26
2023-03-04T10:42:16.152Z,8.33
2023-03-04T10:45:00.007Z,8.29
2023-03-04T10:47:32.726Z,8.08
2023-03-04T10:50:02.683Z,7.97
2023-03-04T10:52:47.294Z,7.99
2023-03-04T10:55:21.748Z,8.00
2023-03-04T10:58:19.870Z,7.95
2023-03-04T11:01:05.376Z,7.98
2023-03-04T11:03:39.700Z,8.06
2023-03-04T11:06:21.823Z,8.12
2023-03-04T11:08:59.142Z,8.19
2023-03-04T11:11:42.555Z,8.29
2023-03-04T11:14:48.688Z,8.40
2023-03-04T11:17:18.051Z,8.47
2023-03-04T11:19:53.447Z,8.48
2023-03-04T11:22:23.141Z,8.45
2023-03-04T11:25:40.354Z,8.41
2023-03-04T11:31:52.969Z,8.46
2023-03-04T11:34:27.308Z,8.42
2023-03-04T11:37:04.708Z,8.40
2023-03-04T11:45:02.619Z,8.50
2023-03-04T11:47:38.828Z,8.50
2023-03-04T11:50:19.800Z,8.47
2023-03-04T11:53:24.477Z,8.43
2023-03-04T12:01:33.858Z,8.40
2023-03-04T12:04:10.209Z,8.42
2023-03-04T12:06:40.368Z,8.47
2023-03-04T12:09:13.524Z,8.46
2023-03-04T12:12:08.159Z,8.47
2023-03-04T12:15:04.814Z,8.47
2023-03-04T12:17:41.369Z,8.51
2023-03-04T12:20:25.482Z,8.53
2023-03-04T12:22:59.344Z,8.51
2023-03-04T12:26:04.538Z,8.49
2023-03-04T12:29:03.811Z,8.44
2023-03-04T12:31:41.339Z,8.37
2023-03-04T12:34:11.524Z,8.32
2023-03-04T12:40:38.124Z,8.30
2023-03-04T12:43:44.640Z,8.26
2023-03-04T12:46:27.037Z,8.21
2023-03-04T12:49:49.796Z,8.20
2023-03-04T12:52:45.690Z,8.19
2023-03-04T12:55:52.905Z,8.17
2023-03-04T12:58:50.551Z,8.16
2023-03-04T13:02:07.310Z,8.15
2023-03-04T13:06:45.059Z,8.15
2023-03-04T13:09:28.091Z,8.18
2023-03-04T13:12:20.975Z,8.22
2023-03-04T13:15:05.371Z,8.25
2023-03-04T13:17:51.583Z,8.27
2023-03-04T13:20:35.075Z,8.25
2023-03-04T13:23:08.292Z,8.26
2023-03-04T13:25:37.492Z,8.30
2023-03-04T13:28:12.696Z,8.32
2023-03-04T13:31:11.265Z,8.35
2023-03-04T13:33:38.313Z,8.39
2023-03-04T13:36:25.212Z,8.36
2023-03-04T13:39:15.012Z,8.30
2023-03-04T13:41:53.242Z,8.27
2023-03-04T13:44:56.899Z,8.25
2023-03-04T13:47:41.392Z,8.23
2023-03-04T13:50:29.504Z,8.20
2023-03-04T13:53:23.267Z,8.15
2023-03-04T13:56:13.909Z,8.06
2023-03-04T13:58:48.190Z,7.97
2023-03-04T14:01:33.513Z,7.91
2023-03-04T14:04:12.443Z,7.87
2023-03-04T14:06:47.070Z,7.81
2023-03-04T14:09:16.102Z,7.76
2023-03-04T14:11:44.366Z,7.74
2023-03-04T14:14:15.363Z,7.73
2023-03-04T14:16:51.552Z,7.72
2023-03-04T14:19:32.886Z,7.68
2023-03-04T14:22:00.572Z,7.63
2023-03-04T14:24:30.359Z,7.57
2023-03-04T14:27:11.225Z,7.52
2023-03-04T14:29:38.650Z,7.44
2023-03-04T14:32:06.350Z,7.39
2023-03-04T14:34:38.961Z,7.34
2023-03-04T14:37:32.658Z,7.31
2023-03-04T14:40:01.239Z,7.29
2023-03-04T14:42:40.102Z,7.26
2023-03-04T14:45:13.891Z,7.23
2023-03-04T14:47:47.996Z,7.18
2023-03-04T14:50:20.042Z,7.14
2023-03-04T14:53:14.886Z,7.10
2023-03-04T14:56:05.994Z,7.06
2023-03-04T14:58:52.660Z,7.04
2023-03-04T15:01:23.112Z,7.03
2023-03-04T15:04:04.161Z,7.00
2023-03-04T15:06:47.383Z,6.96
2023-03-04T15:09:22.409Z,6.94
2023-03-04T15:11:55.754Z,6.91
2023-03-04T15:14:46.820Z,6.89
2023-03-04T15:17:24.368Z,6.84
2023-03-04T15:20:07.467Z,6.80
2023-03-04T15:22:48.609Z,6.76
2023-03-04T15:25:20.034Z,6.71
2023-03-04T15:27:53.530Z,6.66
2023-03-04T15:30:23.571Z,6.63
2023-03-04T15:32:53.998Z,6.59
2023-03-04T15:35:22.571Z,6.56
2023-03-04T15:37:54.193Z,6.53
2023-03-04T15:40:35.086Z,6.49
2023-03-04T15:43:04.275Z,6.44
2023-03-04T15:45:37.792Z,6.40
2023-03-04T15:48:11.295Z,6.34
2023-03-04T15:50:43.292Z,6.29
2023-03-04T15:53:22.805Z,6.23
2023-03-04T15:55:51.273Z,6.17
2023-03-04T15:58:20.240Z,6.12
2023-03-04T16:00:47.228Z,6.06
2023-03-04T16:03:19.960Z,6.00
2023-03-04T16:05:50.188Z,5.95
2023-03-04T16:08:24.614Z,5.89
2023-03-04T16:10:53.334Z,5.82
2023-03-04T16:13:22.872Z,5.75
2023-03-04T16:15:51.811Z,5.69
2023-03-04T16:18:19.036Z,5.64
2023-03-04T16:20:48.245Z,5.60
2023-03-04T16:23:20.144Z,5.56
2023-03-04T16:25:49.293Z,5.53
2023-03-04T16:28:16.344Z,5.49
2023-03-04T16:30:43.284Z,5.45
2023-03-04T16:33:11.069Z,5.40
2023-03-04T16:35:40.798Z,5.38
2023-03-04T16:38:19.502Z,5.35
2023-03-04T16:40:53.120Z,5.32
2023-03-04T16:43:21.050Z,5.28
2023-03-04T16:45:48.285Z,5.22
2023-03-04T16:48:15.953Z,5.19
2023-03-04T16:50:44.108Z,5.15
2023-03-04T16:53:32.068Z,5.11
2023-03-04T16:56:11.331Z,5.07
2023-03-04T16:58:40.975Z,5.01
2023-03-04T17:01:19.000Z,4.96
2023-03-04T17:03:47.205Z,4.90
2023-03-04T17:06:15.700Z,4.84
2023-03-04T17:08:42.776Z,4.77
2023-03-04T17:11:18.067Z,4.69
2023-03-04T17:13:47.279Z,4.63
2023-03-04T17:16:14.775Z,4.57
2023-03-04T17:18:43.852Z,4.52
2023-03-04T17:21:14.679Z,4.46
2023-03-04T17:23:41.838Z,4.41
2023-03-04T17:26:15.039Z,4.35
2023-03-04T17:28:42.373Z,4.30
2023-03-04T17:31:14.510Z,4.26
2023-03-04T17:33:46.965Z,4.24
2023-03-04T17:36:15.587Z,4.23
2023-03-04T17:38:43.099Z,4.22
2023-03-04T17:50:35.934Z,4.12
2023-03-04T17:53:02.991Z,4.09
2023-03-04T17:55:30.023Z,4.06
2023-03-04T17:57:57.848Z,4.04
2023-03-04T18:00:25.020Z,4.03
2023-03-04T18:02:52.011Z,4.00
2023-03-04T18:05:19.211Z,3.95
2023-03-04T18:07:46.166Z,3.92
2023-03-04T18:10:13.713Z,3.87
2023-03-04T18:12:41.056Z,3.79
2023-03-04T18:15:09.591Z,3.71
2023-03-04T18:17:36.899Z,3.66
2023-03-04T18:20:04.380Z,3.61
2023-03-04T18:22:34.948Z,3.58
2023-03-04T18:25:01.830Z,3.57
2023-03-04T18:27:29.788Z,3.56
2023-03-04T18:29:58.170Z,3.55
2023-03-04T18:32:25.327Z,3.54
2023-03-04T18:34:54.661Z,3.50
2023-03-04T18:37:21.749Z,3.48
2023-03-04T18:39:51.224Z,3.49
2023-03-04T18:42:19.392Z,3.50
2023-03-04T18:44:46.510Z,3.52
2023-03-04T18:47:13.771Z,3.55
2023-03-04T18:49:43.226Z,3.55
2023-03-04T18:52:11.985Z,3.52
2023-03-04T18:54:39.669Z,3.47
2023-03-04T18:57:10.757Z,3.41
2023-03-04T18:59:47.230Z,3.37
2023-03-04T19:02:29.966Z,3.36
2023-03-04T19:05:02.574Z,3.32
2023-03-04T19:07:29.658Z,3.28
2023-03-04T19:09:56.552Z,3.25
2023-03-04T19:12:23.508Z,3.20
2023-03-04T19:14:50.790Z,3.15
2023-03-04T19:17:18.277Z,3.11
2023-03-04T19:19:45.357Z,3.08
2023-03-04T19:22:12.910Z,3.06
2023-03-04T19:24:40.042Z,3.04
2023-03-04T19:27:08.934Z,3.04
2023-03-04T19:29:38.503Z,3.05
2023-03-04T19:32:09.016Z,3.07
2023-03-04T19:34:36.839Z,3.08
2023-03-04T19:37:03.706Z,3.09
2023-03-04T19:39:31.693Z,3.10
2023-03-04T19:41:58.570Z,3.10
2023-03-04T19:44:25.593Z,3.11
2023-03-04T19:46:52.610Z,3.13
2023-03-04T19:49:23.785Z,3.14
2023-03-04T19:51:51.134Z,3.15
2023-03-04T19:54:18.253Z,3.15
2023-03-04T19:56:45.428Z,3.16
2023-03-04T19:59:12.662Z,3.17
2023-03-04T20:01:41.154Z,3.19
2023-03-04T20:04:11.283Z,3.18
2023-03-04T20:06:41.812Z,3.18
2023-03-04T20:09:10.746Z,3.18
2023-03-04T20:11:50.745Z,3.17
2023-03-04T20:14:27.820Z,3.16
2023-03-04T20:17:00.097Z,3.15
2023-03-04T20:19:27.165Z,3.14
2023-03-04T20:21:56.340Z,3.14
2023-03-04T20:24:24.169Z,3.12
2023-03-04T20:26:53.344Z,3.10
2023-03-04T20:29:20.350Z,3.08
2023-03-04T20:31:48.044Z,3.05
2023-03-04T20:34:15.570Z,3.02
2023-03-04T20:36:42.530Z,2.99
2023-03-04T20:39:27.091Z,2.98
2023-03-04T20:41:56.901Z,2.96
2023-03-04T20:44:24.122Z,2.94
2023-03-04T20:46:51.742Z,2.94
2023-03-04T20:49:23.390Z,2.92
2023-03-04T20:51:59.787Z,2.90
2023-03-04T20:54:26.694Z,2.88
2023-03-04T20:56:53.707Z,2.85
2023-03-04T20:59:22.232Z,2.82
2023-03-04T21:01:49.466Z,2.77
2023-03-04T21:04:17.429Z,2.71
2023-03-04T21:06:46.728Z,2.66
2023-03-04T21:09:16.913Z,2.59
2023-03-04T21:11:45.498Z,2.52
2023-03-04T21:14:23.821Z,2.46
2023-03-04T21:16:58.583Z,2.41
2023-03-04T21:19:28.858Z,2.36
2023-03-04T21:22:01.809Z,2.32
2023-03-04T21:24:32.886Z,2.29
2023-03-04T21:27:01.136Z,2.26
2023-03-04T21:29:29.676Z,2.22
2023-03-04T21:32:22.433Z,2.20
2023-03-04T21:34:53.544Z,2.17
2023-03-04T21:37:23.169Z,2.15
2023-03-04T21:39:52.561Z,2.14
2023-03-04T21:42:20.579Z,2.12
2023-03-04T21:44:50.559Z,2.11
2023-03-04T21:47:19.918Z,2.10
2023-03-04T21:49:47.316Z,2.08
2023-03-04T21:52:14.369Z,2.09
2023-03-04T21:54:41.538Z,2.09
2023-03-04T21:57:13.169Z,2.11
2023-03-04T21:59:40.646Z,2.14
2023-03-04T22:02:15.365Z,2.17
2023-03-04T22:04:44.690Z,2.17
2023-03-04T22:07:12.989Z,2.18
2023-03-04T22:09:41.729Z,2.18
2023-03-04T22:12:09.311Z,2.17
2023-03-04T22:14:36.573Z,2.17
2023-03-04T22:17:03.655Z,2.17
2023-03-04T22:19:32.152Z,2.16
2023-03-04T22:21:59.780Z,2.15
2023-03-04T22:24:27.030Z,2.13
2023-03-04T22:26:56.250Z,2.11
2023-03-04T22:29:23.170Z,2.09
2023-03-04T22:31:50.250Z,2.07
2023-03-04T22:34:19.418Z,2.06
2023-03-04T22:36:48.246Z,2.07
2023-03-04T22:39:22.333Z,2.08
2023-03-04T22:41:49.489Z,2.08
2023-03-04T22:44:16.721Z,2.07
2023-03-04T22:46:44.179Z,2.08
2023-03-04T22:49:12.717Z,2.08
2023-03-04T22:51:42.713Z,2.10
2023-03-04T22:54:17.608Z,2.12
2023-03-04T22:56:45.163Z,2.13
2023-03-04T22:59:12.810Z,2.14
2023-03-04T23:01:44.016Z,2.15
2023-03-04T23:04:11.344Z,2.16
2023-03-04T23:06:38.617Z,2.19
2023-03-04T23:09:12.426Z,2.21
2023-03-04T23:11:42.026Z,2.22
2023-03-04T23:14:11.261Z,2.24
2023-03-04T23:16:46.769Z,2.27
2023-03-04T23:19:16.978Z,2.29
2023-03-04T23:21:44.259Z,2.32
2023-03-04T23:24:12.510Z,2.35
2023-03-04T23:26:41.002Z,2.39
2023-03-04T23:29:11.402Z,2.45
2023-03-04T23:31:38.623Z,2.49
2023-03-04T23:34:07.434Z,2.53
2023-03-04T23:36:36.819Z,2.55
2023-03-04T23:39:05.647Z,2.59
2023-03-04T23:41:35.299Z,2.61
2023-03-04T23:44:05.580Z,2.61
2023-03-04T23:46:34.013Z,2.61
2023-03-04T23:49:01.287Z,2.61
2023-03-04T23:51:29.451Z,2.61
2023-03-04T23:53:56.468Z,2.61
